sensor_id;sensor_type;location;lat;lon;timestamp;P1;durP1;ratioP1;P2;durP2;ratioP2
32228;SDS011;18717;48.034;11.186;2023-09-12T00:01:42;19.92;;;18.15;;
32228;SDS011;18717;48.034;11.186;2023-09-12T00:04:10;20.10;;;18.30;;
32228;SDS011;18717;48.034;11.186;2023-09-12T00:06:38;20.55;;;18.85;;
32228;SDS011;18717;48.034;11.186;2023-09-12T00:09:06;21.75;;;19.73;;
32228;SDS011;18717;48.034;11.186;2023-09-12T00:11:35;20.38;;;18.65;;
32228;SDS011;18717;48.034;11.186;2023-09-12T00:14:04;20.23;;;18.65;;
32228;SDS011;18717;48.034;11.186;2023-09-12T00:16:34;20.98;;;19.02;;
32228;SDS011;18717;48.034;11.186;2023-09-12T00:19:02;19.88;;;18.17;;
32228;SDS011;18717;48.034;11.186;2023-09-12T00:21:30;21.55;;;19.27;;
32228;SDS011;18717;48.034;11.186;2023-09-12T00:23:58;22.27;;;19.83;;
32228;SDS011;18717;48.034;11.186;2023-09-12T00:26:26;20.45;;;18.52;;
32228;SDS011;18717;48.034;11.186;2023-09-12T00:28:54;21.42;;;19.42;;
32228;SDS011;18717;48.034;11.186;2023-09-12T00:31:23;22.02;;;19.95;;
32228;SDS011;18717;48.034;11.186;2023-09-12T00:33:51;22.63;;;20.60;;
32228;SDS011;18717;48.034;11.186;2023-09-12T00:36:19;23.67;;;21.50;;
32228;SDS011;18717;48.034;11.186;2023-09-12T00:38:46;20.85;;;19.13;;
32228;SDS011;18717;48.034;11.186;2023-09-12T00:41:14;20.75;;;19.00;;
32228;SDS011;18717;48.034;11.186;2023-09-12T00:43:42;21.10;;;19.27;;
32228;SDS011;18717;48.034;11.186;2023-09-12T00:46:10;19.52;;;17.83;;
32228;SDS011;18717;48.034;11.186;2023-09-12T00:48:39;20.10;;;18.60;;
32228;SDS011;18717;48.034;11.186;2023-09-12T00:51:08;20.95;;;19.20;;
32228;SDS011;18717;48.034;11.186;2023-09-12T00:53:36;20.70;;;18.90;;
32228;SDS011;18717;48.034;11.186;2023-09-12T00:56:04;20.60;;;18.67;;
32228;SDS011;18717;48.034;11.186;2023-09-12T00:58:32;20.88;;;19.00;;
32228;SDS011;18717;48.034;11.186;2023-09-12T01:01:00;20.95;;;19.15;;
32228;SDS011;18717;48.034;11.186;2023-09-12T01:03:28;20.73;;;18.88;;
32228;SDS011;18717;48.034;11.186;2023-09-12T01:05:57;20.55;;;18.60;;
32228;SDS011;18717;48.034;11.186;2023-09-12T01:08:26;20.77;;;18.80;;
32228;SDS011;18717;48.034;11.186;2023-09-12T01:10:54;20.27;;;18.67;;
32228;SDS011;18717;48.034;11.186;2023-09-12T01:13:23;20.48;;;18.58;;
32228;SDS011;18717;48.034;11.186;2023-09-12T01:15:50;21.70;;;19.80;;
32228;SDS011;18717;48.034;11.186;2023-09-12T01:18:18;22.38;;;20.17;;
32228;SDS011;18717;48.034;11.186;2023-09-12T01:20:50;20.50;;;18.83;;
32228;SDS011;18717;48.034;11.186;2023-09-12T01:23:33;20.75;;;18.80;;
32228;SDS011;18717;48.034;11.186;2023-09-12T01:29:06;20.50;;;18.50;;
32228;SDS011;18717;48.034;11.186;2023-09-12T01:31:34;19.70;;;18.08;;
32228;SDS011;18717;48.034;11.186;2023-09-12T01:34:08;22.38;;;20.27;;
32228;SDS011;18717;48.034;11.186;2023-09-12T01:36:36;20.38;;;18.77;;
32228;SDS011;18717;48.034;11.186;2023-09-12T01:39:05;20.08;;;18.38;;
32228;SDS011;18717;48.034;11.186;2023-09-12T01:41:34;21.45;;;19.55;;
32228;SDS011;18717;48.034;11.186;2023-09-12T01:44:03;21.42;;;19.58;;
32228;SDS011;18717;48.034;11.186;2023-09-12T01:46:33;20.38;;;18.75;;
32228;SDS011;18717;48.034;11.186;2023-09-12T01:49:02;21.33;;;19.52;;
32228;SDS011;18717;48.034;11.186;2023-09-12T01:51:30;21.90;;;19.90;;
32228;SDS011;18717;48.034;11.186;2023-09-12T01:53:59;22.08;;;20.08;;
32228;SDS011;18717;48.034;11.186;2023-09-12T01:56:27;20.83;;;19.02;;
32228;SDS011;18717;48.034;11.186;2023-09-12T01:58:55;21.55;;;19.65;;
32228;SDS011;18717;48.034;11.186;2023-09-12T02:01:25;21.10;;;18.98;;
32228;SDS011;18717;48.034;11.186;2023-09-12T02:03:54;21.63;;;19.48;;
32228;SDS011;18717;48.034;11.186;2023-09-12T02:06:22;21.42;;;19.52;;
32228;SDS011;18717;48.034;11.186;2023-09-12T02:08:50;21.50;;;19.27;;
32228;SDS011;18717;48.034;11.186;2023-09-12T02:11:17;21.88;;;20.17;;
32228;SDS011;18717;48.034;11.186;2023-09-12T02:13:45;21.65;;;19.75;;
32228;SDS011;18717;48.034;11.186;2023-09-12T02:16:13;21.75;;;19.83;;
32228;SDS011;18717;48.034;11.186;2023-09-12T02:18:42;22.55;;;19.92;;
32228;SDS011;18717;48.034;11.186;2023-09-12T02:21:11;22.27;;;20.20;;
32228;SDS011;18717;48.034;11.186;2023-09-12T02:23:39;22.95;;;20.77;;
32228;SDS011;18717;48.034;11.186;2023-09-12T02:26:06;24.50;;;22.23;;
32228;SDS011;18717;48.034;11.186;2023-09-12T02:28:34;23.50;;;21.35;;
32228;SDS011;18717;48.034;11.186;2023-09-12T02:31:02;24.65;;;21.08;;
32228;SDS011;18717;48.034;11.186;2023-09-12T02:33:30;22.25;;;20.10;;
32228;SDS011;18717;48.034;11.186;2023-09-12T02:35:59;21.95;;;20.10;;
32228;SDS011;18717;48.034;11.186;2023-09-12T02:38:27;21.90;;;19.60;;
32228;SDS011;18717;48.034;11.186;2023-09-12T02:40:55;23.77;;;21.40;;
32228;SDS011;18717;48.034;11.186;2023-09-12T02:43:23;22.08;;;20.17;;
32228;SDS011;18717;48.034;11.186;2023-09-12T02:45:51;22.40;;;20.38;;
32228;SDS011;18717;48.034;11.186;2023-09-12T02:48:19;22.65;;;20.73;;
32228;SDS011;18717;48.034;11.186;2023-09-12T02:50:47;23.00;;;20.70;;
32228;SDS011;18717;48.034;11.186;2023-09-12T02:53:16;20.90;;;19.10;;
32228;SDS011;18717;48.034;11.186;2023-09-12T02:55:44;22.08;;;20.13;;
32228;SDS011;18717;48.034;11.186;2023-09-12T02:58:12;21.35;;;19.25;;
32228;SDS011;18717;48.034;11.186;2023-09-12T03:00:40;23.15;;;21.05;;
32228;SDS011;18717;48.034;11.186;2023-09-12T03:03:08;21.70;;;19.80;;
32228;SDS011;18717;48.034;11.186;2023-09-12T03:05:36;21.83;;;19.83;;
32228;SDS011;18717;48.034;11.186;2023-09-12T03:08:04;21.58;;;19.48;;
32228;SDS011;18717;48.034;11.186;2023-09-12T03:10:34;21.83;;;19.73;;
32228;SDS011;18717;48.034;11.186;2023-09-12T03:13:02;22.02;;;19.65;;
32228;SDS011;18717;48.034;11.186;2023-09-12T03:15:35;24.05;;;21.52;;
32228;SDS011;18717;48.034;11.186;2023-09-12T03:18:03;21.52;;;19.75;;
32228;SDS011;18717;48.034;11.186;2023-09-12T03:20:32;22.42;;;20.17;;
32228;SDS011;18717;48.034;11.186;2023-09-12T03:23:00;22.30;;;19.98;;
32228;SDS011;18717;48.034;11.186;2023-09-12T03:25:28;21.38;;;19.45;;
32228;SDS011;18717;48.034;11.186;2023-09-12T03:27:57;21.90;;;20.00;;
32228;SDS011;18717;48.034;11.186;2023-09-12T03:30:25;21.75;;;19.95;;
32228;SDS011;18717;48.034;11.186;2023-09-12T03:32:53;22.83;;;20.83;;
32228;SDS011;18717;48.034;11.186;2023-09-12T03:35:21;23.02;;;20.80;;
32228;SDS011;18717;48.034;11.186;2023-09-12T03:37:48;23.27;;;20.67;;
32228;SDS011;18717;48.034;11.186;2023-09-12T03:40:17;24.45;;;21.65;;
32228;SDS011;18717;48.034;11.186;2023-09-12T03:42:44;23.77;;;21.38;;
32228;SDS011;18717;48.034;11.186;2023-09-12T03:45:14;22.92;;;20.92;;
32228;SDS011;18717;48.034;11.186;2023-09-12T03:47:42;21.83;;;19.83;;
32228;SDS011;18717;48.034;11.186;2023-09-12T03:50:13;23.73;;;21.70;;
32228;SDS011;18717;48.034;11.186;2023-09-12T03:52:41;21.90;;;20.00;;
32228;SDS011;18717;48.034;11.186;2023-09-12T03:55:09;23.15;;;21.15;;
32228;SDS011;18717;48.034;11.186;2023-09-12T03:57:37;24.25;;;21.95;;
32228;SDS011;18717;48.034;11.186;2023-09-12T04:00:05;23.17;;;21.17;;
32228;SDS011;18717;48.034;11.186;2023-09-12T04:02:36;23.90;;;21.40;;
32228;SDS011;18717;48.034;11.186;2023-09-12T04:05:04;22.23;;;20.10;;
32228;SDS011;18717;48.034;11.186;2023-09-12T04:07:32;22.85;;;20.30;;
32228;SDS011;18717;48.034;11.186;2023-09-12T04:10:00;21.60;;;19.58;;
32228;SDS011;18717;48.034;11.186;2023-09-12T04:12:28;22.33;;;20.33;;
32228;SDS011;18717;48.034;11.186;2023-09-12T04:14:56;22.65;;;20.55;;
32228;SDS011;18717;48.034;11.186;2023-09-12T04:17:23;21.25;;;19.15;;
32228;SDS011;18717;48.034;11.186;2023-09-12T04:19:53;22.10;;;19.85;;
32228;SDS011;18717;48.034;11.186;2023-09-12T04:22:20;22.02;;;20.05;;
32228;SDS011;18717;48.034;11.186;2023-09-12T04:24:49;21.90;;;19.80;;
32228;SDS011;18717;48.034;11.186;2023-09-12T04:27:16;22.30;;;19.98;;
32228;SDS011;18717;48.034;11.186;2023-09-12T04:29:44;21.63;;;19.52;;
32228;SDS011;18717;48.034;11.186;2023-09-12T04:32:12;22.80;;;20.67;;
32228;SDS011;18717;48.034;11.186;2023-09-12T04:34:42;22.67;;;20.58;;
32228;SDS011;18717;48.034;11.186;2023-09-12T04:37:11;21.80;;;19.88;;
32228;SDS011;18717;48.034;11.186;2023-09-12T04:39:39;23.27;;;21.08;;
32228;SDS011;18717;48.034;11.186;2023-09-12T04:42:06;22.33;;;20.27;;
32228;SDS011;18717;48.034;11.186;2023-09-12T04:44:34;21.50;;;19.50;;
32228;SDS011;18717;48.034;11.186;2023-09-12T04:47:03;22.23;;;20.13;;
32228;SDS011;18717;48.034;11.186;2023-09-12T04:49:31;21.00;;;19.23;;
32228;SDS011;18717;48.034;11.186;2023-09-12T04:51:58;22.10;;;20.08;;
32228;SDS011;18717;48.034;11.186;2023-09-12T04:54:28;21.95;;;19.52;;
32228;SDS011;18717;48.034;11.186;2023-09-12T04:56:55;22.77;;;20.67;;
32228;SDS011;18717;48.034;11.186;2023-09-12T04:59:23;21.50;;;19.60;;
32228;SDS011;18717;48.034;11.186;2023-09-12T05:01:51;21.15;;;19.23;;
32228;SDS011;18717;48.034;11.186;2023-09-12T05:04:19;21.55;;;19.42;;
32228;SDS011;18717;48.034;11.186;2023-09-12T05:06:47;21.98;;;19.80;;
32228;SDS011;18717;48.034;11.186;2023-09-12T05:09:15;22.05;;;19.77;;
32228;SDS011;18717;48.034;11.186;2023-09-12T05:11:44;20.98;;;19.00;;
32228;SDS011;18717;48.034;11.186;2023-09-12T05:14:12;20.98;;;19.17;;
32228;SDS011;18717;48.034;11.186;2023-09-12T05:16:40;22.17;;;19.95;;
32228;SDS011;18717;48.034;11.186;2023-09-12T05:19:08;21.75;;;19.77;;
32228;SDS011;18717;48.034;11.186;2023-09-12T05:21:35;23.13;;;20.92;;
32228;SDS011;18717;48.034;11.186;2023-09-12T05:24:03;23.27;;;20.98;;
32228;SDS011;18717;48.034;11.186;2023-09-12T05:26:32;23.27;;;20.83;;
32228;SDS011;18717;48.034;11.186;2023-09-12T05:29:01;24.40;;;22.10;;
32228;SDS011;18717;48.034;11.186;2023-09-12T05:31:29;22.15;;;20.15;;
32228;SDS011;18717;48.034;11.186;2023-09-12T05:33:58;22.50;;;20.42;;
32228;SDS011;18717;48.034;11.186;2023-09-12T05:36:26;22.83;;;20.60;;
32228;SDS011;18717;48.034;11.186;2023-09-12T05:38:53;22.40;;;20.52;;
32228;SDS011;18717;48.034;11.186;2023-09-12T05:41:25;22.48;;;20.20;;
32228;SDS011;18717;48.034;11.186;2023-09-12T05:43:53;23.17;;;20.88;;
32228;SDS011;18717;48.034;11.186;2023-09-12T05:46:22;22.58;;;20.38;;
32228;SDS011;18717;48.034;11.186;2023-09-12T05:48:50;22.30;;;20.30;;
32228;SDS011;18717;48.034;11.186;2023-09-12T05:51:18;23.50;;;21.20;;
32228;SDS011;18717;48.034;11.186;2023-09-12T05:53:45;23.80;;;21.58;;
32228;SDS011;18717;48.034;11.186;2023-09-12T05:56:13;22.50;;;20.15;;
32228;SDS011;18717;48.034;11.186;2023-09-12T05:58:41;24.40;;;22.20;;
32228;SDS011;18717;48.034;11.186;2023-09-12T06:01:09;24.95;;;22.48;;
32228;SDS011;18717;48.034;11.186;2023-09-12T06:03:38;23.92;;;21.67;;
32228;SDS011;18717;48.034;11.186;2023-09-12T06:06:06;22.77;;;20.63;;
32228;SDS011;18717;48.034;11.186;2023-09-12T06:08:34;22.52;;;20.63;;
32228;SDS011;18717;48.034;11.186;2023-09-12T06:11:02;22.02;;;19.88;;
32228;SDS011;18717;48.034;11.186;2023-09-12T06:13:30;23.25;;;21.08;;
32228;SDS011;18717;48.034;11.186;2023-09-12T06:15:59;23.05;;;20.80;;
32228;SDS011;18717;48.034;11.186;2023-09-12T06:18:27;21.50;;;19.58;;
32228;SDS011;18717;48.034;11.186;2023-09-12T06:20:58;23.13;;;20.73;;
32228;SDS011;18717;48.034;11.186;2023-09-12T06:23:28;21.45;;;19.40;;
32228;SDS011;18717;48.034;11.186;2023-09-12T06:25:56;22.63;;;20.60;;
32228;SDS011;18717;48.034;11.186;2023-09-12T06:28:26;22.50;;;20.58;;
32228;SDS011;18717;48.034;11.186;2023-09-12T06:30:55;21.98;;;19.63;;
32228;SDS011;18717;48.034;11.186;2023-09-12T06:33:23;22.42;;;20.30;;
32228;SDS011;18717;48.034;11.186;2023-09-12T06:35:51;22.02;;;20.13;;
32228;SDS011;18717;48.034;11.186;2023-09-12T06:38:21;20.63;;;18.80;;
32228;SDS011;18717;48.034;11.186;2023-09-12T06:40:50;21.88;;;19.77;;
32228;SDS011;18717;48.034;11.186;2023-09-12T06:43:18;22.55;;;19.48;;
32228;SDS011;18717;48.034;11.186;2023-09-12T06:45:45;21.73;;;19.73;;
32228;SDS011;18717;48.034;11.186;2023-09-12T06:48:13;24.75;;;20.75;;
32228;SDS011;18717;48.034;11.186;2023-09-12T06:50:43;20.48;;;18.80;;
32228;SDS011;18717;48.034;11.186;2023-09-12T06:53:16;22.27;;;20.30;;
32228;SDS011;18717;48.034;11.186;2023-09-12T06:55:45;22.98;;;20.70;;
32228;SDS011;18717;48.034;11.186;2023-09-12T06:58:13;21.90;;;19.98;;
32228;SDS011;18717;48.034;11.186;2023-09-12T07:00:41;21.75;;;19.85;;
32228;SDS011;18717;48.034;11.186;2023-09-12T07:03:09;22.42;;;20.48;;
32228;SDS011;18717;48.034;11.186;2023-09-12T07:05:41;22.70;;;20.70;;
32228;SDS011;18717;48.034;11.186;2023-09-12T07:08:09;23.95;;;21.75;;
32228;SDS011;18717;48.034;11.186;2023-09-12T07:10:36;23.15;;;20.95;;
32228;SDS011;18717;48.034;11.186;2023-09-12T07:13:05;22.15;;;20.08;;
32228;SDS011;18717;48.034;11.186;2023-09-12T07:15:35;22.55;;;20.75;;
32228;SDS011;18717;48.034;11.186;2023-09-12T07:18:03;21.48;;;19.67;;
32228;SDS011;18717;48.034;11.186;2023-09-12T07:20:33;22.85;;;20.75;;
32228;SDS011;18717;48.034;11.186;2023-09-12T07:23:01;24.23;;;21.60;;
32228;SDS011;18717;48.034;11.186;2023-09-12T07:25:29;22.98;;;20.73;;
32228;SDS011;18717;48.034;11.186;2023-09-12T07:27:57;21.77;;;20.08;;
32228;SDS011;18717;48.034;11.186;2023-09-12T07:30:26;24.38;;;22.27;;
32228;SDS011;18717;48.034;11.186;2023-09-12T07:32:55;23.70;;;21.52;;
32228;SDS011;18717;48.034;11.186;2023-09-12T07:35:23;24.27;;;21.90;;
32228;SDS011;18717;48.034;11.186;2023-09-12T07:37:50;23.35;;;21.45;;
32228;SDS011;18717;48.034;11.186;2023-09-12T07:40:18;23.23;;;21.10;;
32228;SDS011;18717;48.034;11.186;2023-09-12T07:42:46;21.48;;;19.60;;
32228;SDS011;18717;48.034;11.186;2023-09-12T07:45:14;23.27;;;21.17;;
32228;SDS011;18717;48.034;11.186;2023-09-12T07:47:43;22.60;;;20.58;;
32228;SDS011;18717;48.034;11.186;2023-09-12T07:50:10;23.40;;;21.50;;
32228;SDS011;18717;48.034;11.186;2023-09-12T07:52:38;22.58;;;20.77;;
32228;SDS011;18717;48.034;11.186;2023-09-12T07:55:07;22.23;;;20.40;;
32228;SDS011;18717;48.034;11.186;2023-09-12T07:57:35;22.40;;;20.20;;
32228;SDS011;18717;48.034;11.186;2023-09-12T08:00:04;22.73;;;20.83;;
32228;SDS011;18717;48.034;11.186;2023-09-12T08:02:36;20.40;;;18.90;;
32228;SDS011;18717;48.034;11.186;2023-09-12T08:05:06;21.77;;;20.08;;
32228;SDS011;18717;48.034;11.186;2023-09-12T08:07:35;22.15;;;20.55;;
32228;SDS011;18717;48.034;11.186;2023-09-12T08:10:04;20.63;;;19.05;;
32228;SDS011;18717;48.034;11.186;2023-09-12T08:12:32;22.00;;;20.02;;
32228;SDS011;18717;48.034;11.186;2023-09-12T08:15:01;22.20;;;20.27;;
32228;SDS011;18717;48.034;11.186;2023-09-12T08:17:29;22.35;;;20.73;;
32228;SDS011;18717;48.034;11.186;2023-09-12T08:19:57;21.38;;;19.67;;
32228;SDS011;18717;48.034;11.186;2023-09-12T08:22:26;21.67;;;19.73;;
32228;SDS011;18717;48.034;11.186;2023-09-12T08:24:53;21.15;;;19.60;;
32228;SDS011;18717;48.034;11.186;2023-09-12T08:27:21;22.42;;;20.52;;
32228;SDS011;18717;48.034;11.186;2023-09-12T08:29:49;21.70;;;20.02;;
32228;SDS011;18717;48.034;11.186;2023-09-12T08:32:17;21.60;;;19.75;;
32228;SDS011;18717;48.034;11.186;2023-09-12T08:34:45;22.50;;;20.80;;
32228;SDS011;18717;48.034;11.186;2023-09-12T08:37:13;21.92;;;20.27;;
32228;SDS011;18717;48.034;11.186;2023-09-12T08:39:42;21.90;;;20.17;;
32228;SDS011;18717;48.034;11.186;2023-09-12T08:42:12;22.10;;;20.50;;
32228;SDS011;18717;48.034;11.186;2023-09-12T08:44:41;21.70;;;20.10;;
32228;SDS011;18717;48.034;11.186;2023-09-12T08:47:09;22.25;;;20.40;;
32228;SDS011;18717;48.034;11.186;2023-09-12T08:49:37;21.58;;;19.67;;
32228;SDS011;18717;48.034;11.186;2023-09-12T08:52:05;22.80;;;20.48;;
32228;SDS011;18717;48.034;11.186;2023-09-12T08:54:33;21.70;;;19.83;;
32228;SDS011;18717;48.034;11.186;2023-09-12T08:57:02;22.30;;;20.35;;
32228;SDS011;18717;48.034;11.186;2023-09-12T08:59:31;21.60;;;19.80;;
32228;SDS011;18717;48.034;11.186;2023-09-12T09:01:59;20.27;;;18.67;;
32228;SDS011;18717;48.034;11.186;2023-09-12T09:04:28;21.08;;;19.55;;
32228;SDS011;18717;48.034;11.186;2023-09-12T09:06:57;21.80;;;20.00;;
32228;SDS011;18717;48.034;11.186;2023-09-12T09:09:26;20.45;;;19.02;;
32228;SDS011;18717;48.034;11.186;2023-09-12T09:11:54;20.67;;;19.27;;
32228;SDS011;18717;48.034;11.186;2023-09-12T09:14:23;21.40;;;19.80;;
32228;SDS011;18717;48.034;11.186;2023-09-12T09:16:51;20.73;;;19.33;;
32228;SDS011;18717;48.034;11.186;2023-09-12T09:19:19;20.65;;;19.15;;
32228;SDS011;18717;48.034;11.186;2023-09-12T09:21:47;22.60;;;20.80;;
32228;SDS011;18717;48.034;11.186;2023-09-12T09:24:14;22.73;;;21.10;;
32228;SDS011;18717;48.034;11.186;2023-09-12T09:26:45;22.02;;;20.02;;
32228;SDS011;18717;48.034;11.186;2023-09-12T09:29:14;21.30;;;19.65;;
32228;SDS011;18717;48.034;11.186;2023-09-12T09:31:44;21.08;;;19.48;;
32228;SDS011;18717;48.034;11.186;2023-09-12T09:34:13;21.98;;;20.38;;
32228;SDS011;18717;48.034;11.186;2023-09-12T09:36:43;22.30;;;20.60;;
32228;SDS011;18717;48.034;11.186;2023-09-12T09:39:11;22.25;;;20.52;;
32228;SDS011;18717;48.034;11.186;2023-09-12T09:41:40;21.67;;;20.23;;
32228;SDS011;18717;48.034;11.186;2023-09-12T09:44:08;22.20;;;20.52;;
32228;SDS011;18717;48.034;11.186;2023-09-12T09:46:36;22.20;;;20.63;;
32228;SDS011;18717;48.034;11.186;2023-09-12T09:49:06;22.63;;;20.60;;
32228;SDS011;18717;48.034;11.186;2023-09-12T09:51:40;21.67;;;20.10;;
32228;SDS011;18717;48.034;11.186;2023-09-12T09:54:09;22.77;;;21.15;;
32228;SDS011;18717;48.034;11.186;2023-09-12T09:56:44;23.23;;;21.33;;
32228;SDS011;18717;48.034;11.186;2023-09-12T09:59:14;23.90;;;22.08;;
32228;SDS011;18717;48.034;11.186;2023-09-12T10:01:43;22.15;;;20.55;;
32228;SDS011;18717;48.034;11.186;2023-09-12T10:04:12;22.08;;;20.48;;
32228;SDS011;18717;48.034;11.186;2023-09-12T10:06:43;23.35;;;21.63;;
32228;SDS011;18717;48.034;11.186;2023-09-12T10:09:12;21.42;;;19.67;;
32228;SDS011;18717;48.034;11.186;2023-09-12T10:11:41;22.38;;;20.25;;
32228;SDS011;18717;48.034;11.186;2023-09-12T10:14:10;22.10;;;20.40;;
32228;SDS011;18717;48.034;11.186;2023-09-12T10:16:41;21.63;;;19.92;;
32228;SDS011;18717;48.034;11.186;2023-09-12T10:19:15;22.65;;;21.08;;
32228;SDS011;18717;48.034;11.186;2023-09-12T10:21:46;22.85;;;20.95;;
32228;SDS011;18717;48.034;11.186;2023-09-12T10:24:16;22.55;;;20.92;;
32228;SDS011;18717;48.034;11.186;2023-09-12T10:26:44;22.27;;;20.63;;
32228;SDS011;18717;48.034;11.186;2023-09-12T10:29:12;22.13;;;20.55;;
32228;SDS011;18717;48.034;11.186;2023-09-12T10:31:41;22.13;;;20.63;;
32228;SDS011;18717;48.034;11.186;2023-09-12T10:34:10;20.02;;;18.80;;
32228;SDS011;18717;48.034;11.186;2023-09-12T10:36:44;20.00;;;18.50;;
32228;SDS011;18717;48.034;11.186;2023-09-12T10:39:13;21.85;;;20.10;;
32228;SDS011;18717;48.034;11.186;2023-09-12T10:41:42;21.67;;;20.00;;
32228;SDS011;18717;48.034;11.186;2023-09-12T10:44:11;21.23;;;19.58;;
32228;SDS011;18717;48.034;11.186;2023-09-12T10:46:40;21.40;;;20.05;;
32228;SDS011;18717;48.034;11.186;2023-09-12T10:49:09;21.45;;;20.05;;
32228;SDS011;18717;48.034;11.186;2023-09-12T10:51:38;20.52;;;19.17;;
32228;SDS011;18717;48.034;11.186;2023-09-12T10:54:08;21.20;;;19.65;;
32228;SDS011;18717;48.034;11.186;2023-09-12T10:56:37;22.25;;;20.70;;
32228;SDS011;18717;48.034;11.186;2023-09-12T10:59:12;21.67;;;20.08;;
32228;SDS011;18717;48.034;11.186;2023-09-12T11:01:40;20.58;;;19.15;;
32228;SDS011;18717;48.034;11.186;2023-09-12T11:04:30;21.63;;;20.17;;
32228;SDS011;18717;48.034;11.186;2023-09-12T11:07:00;20.17;;;18.83;;
32228;SDS011;18717;48.034;11.186;2023-09-12T11:09:30;21.83;;;20.23;;
32228;SDS011;18717;48.034;11.186;2023-09-12T11:11:58;21.67;;;20.08;;
32228;SDS011;18717;48.034;11.186;2023-09-12T11:14:29;21.38;;;19.98;;
32228;SDS011;18717;48.034;11.186;2023-09-12T11:19:52;21.25;;;19.55;;
32228;SDS011;18717;48.034;11.186;2023-09-12T11:22:21;21.02;;;19.52;;
32228;SDS011;18717;48.034;11.186;2023-09-12T11:24:51;20.33;;;18.83;;
32228;SDS011;18717;48.034;11.186;2023-09-12T11:27:21;21.47;;;19.37;;
32228;SDS011;18717;48.034;11.186;2023-09-12T11:29:49;20.45;;;19.00;;
32228;SDS011;18717;48.034;11.186;2023-09-12T11:32:30;20.73;;;19.42;;
32228;SDS011;18717;48.034;11.186;2023-09-12T11:34:59;22.10;;;20.33;;
32228;SDS011;18717;48.034;11.186;2023-09-12T11:37:27;21.38;;;19.98;;
32228;SDS011;18717;48.034;11.186;2023-09-12T11:39:57;20.98;;;19.33;;
32228;SDS011;18717;48.034;11.186;2023-09-12T11:42:25;20.85;;;19.25;;
32228;SDS011;18717;48.034;11.186;2023-09-12T11:44:54;21.13;;;19.58;;
32228;SDS011;18717;48.034;11.186;2023-09-12T11:47:22;20.35;;;18.95;;
32228;SDS011;18717;48.034;11.186;2023-09-12T11:49:50;20.70;;;19.20;;
32228;SDS011;18717;48.034;11.186;2023-09-12T11:52:18;19.92;;;18.50;;
32228;SDS011;18717;48.034;11.186;2023-09-12T11:54:46;20.27;;;18.98;;
32228;SDS011;18717;48.034;11.186;2023-09-12T11:57:16;18.55;;;17.45;;
32228;SDS011;18717;48.034;11.186;2023-09-12T11:59:44;19.48;;;18.10;;
32228;SDS011;18717;48.034;11.186;2023-09-12T12:02:13;19.83;;;18.42;;
32228;SDS011;18717;48.034;11.186;2023-09-12T12:04:41;19.17;;;17.73;;
32228;SDS011;18717;48.034;11.186;2023-09-12T12:07:09;19.88;;;18.58;;
32228;SDS011;18717;48.034;11.186;2023-09-12T12:09:37;21.13;;;19.52;;
32228;SDS011;18717;48.034;11.186;2023-09-12T12:12:09;20.48;;;19.08;;
32228;SDS011;18717;48.034;11.186;2023-09-12T12:14:39;20.92;;;19.52;;
32228;SDS011;18717;48.034;11.186;2023-09-12T12:17:08;19.97;;;18.67;;
32228;SDS011;18717;48.034;11.186;2023-09-12T12:19:37;21.25;;;19.77;;
32228;SDS011;18717;48.034;11.186;2023-09-12T12:22:05;21.13;;;19.83;;
32228;SDS011;18717;48.034;11.186;2023-09-12T12:24:37;20.65;;;19.15;;
32228;SDS011;18717;48.034;11.186;2023-09-12T12:27:05;20.30;;;18.95;;
32228;SDS011;18717;48.034;11.186;2023-09-12T12:29:34;20.10;;;18.70;;
32228;SDS011;18717;48.034;11.186;2023-09-12T12:32:04;19.95;;;18.65;;
32228;SDS011;18717;48.034;11.186;2023-09-12T12:34:32;20.45;;;18.67;;
32228;SDS011;18717;48.034;11.186;2023-09-12T12:37:20;20.88;;;19.52;;
32228;SDS011;18717;48.034;11.186;2023-09-12T12:39:48;20.20;;;18.70;;
32228;SDS011;18717;48.034;11.186;2023-09-12T12:42:15;20.77;;;18.88;;
32228;SDS011;18717;48.034;11.186;2023-09-12T12:44:43;19.52;;;18.30;;
32228;SDS011;18717;48.034;11.186;2023-09-12T12:47:12;21.80;;;20.40;;
32228;SDS011;18717;48.034;11.186;2023-09-12T12:49:40;20.15;;;18.58;;
32228;SDS011;18717;48.034;11.186;2023-09-12T12:52:09;21.30;;;19.58;;
32228;SDS011;18717;48.034;11.186;2023-09-12T12:54:37;21.83;;;20.13;;
32228;SDS011;18717;48.034;11.186;2023-09-12T12:57:05;20.83;;;19.45;;
32228;SDS011;18717;48.034;11.186;2023-09-12T12:59:33;20.73;;;19.17;;
32228;SDS011;18717;48.034;11.186;2023-09-12T13:02:02;22.08;;;20.27;;
32228;SDS011;18717;48.034;11.186;2023-09-12T13:04:36;20.60;;;19.33;;
32228;SDS011;18717;48.034;11.186;2023-09-12T13:07:04;19.67;;;18.38;;
32228;SDS011;18717;48.034;11.186;2023-09-12T13:09:32;19.77;;;18.48;;
32228;SDS011;18717;48.034;11.186;2023-09-12T13:12:00;19.92;;;18.38;;
32228;SDS011;18717;48.034;11.186;2023-09-12T13:14:28;19.90;;;18.60;;
32228;SDS011;18717;48.034;11.186;2023-09-12T13:16:57;20.55;;;19.27;;
32228;SDS011;18717;48.034;11.186;2023-09-12T13:19:25;19.67;;;18.33;;
32228;SDS011;18717;48.034;11.186;2023-09-12T13:21:54;19.77;;;18.30;;
32228;SDS011;18717;48.034;11.186;2023-09-12T13:24:22;19.98;;;18.48;;
32228;SDS011;18717;48.034;11.186;2023-09-12T13:26:50;20.92;;;19.50;;
32228;SDS011;18717;48.034;11.186;2023-09-12T13:29:19;21.27;;;19.77;;
32228;SDS011;18717;48.034;11.186;2023-09-12T13:31:46;20.73;;;19.33;;
32228;SDS011;18717;48.034;11.186;2023-09-12T13:34:14;20.38;;;18.98;;
32228;SDS011;18717;48.034;11.186;2023-09-12T13:36:43;20.00;;;18.50;;
32228;SDS011;18717;48.034;11.186;2023-09-12T13:39:16;20.35;;;18.92;;
32228;SDS011;18717;48.034;11.186;2023-09-12T13:41:44;20.83;;;19.35;;
32228;SDS011;18717;48.034;11.186;2023-09-12T13:44:12;20.85;;;19.30;;
32228;SDS011;18717;48.034;11.186;2023-09-12T13:46:40;21.17;;;19.85;;
32228;SDS011;18717;48.034;11.186;2023-09-12T13:49:10;19.42;;;18.13;;
32228;SDS011;18717;48.034;11.186;2023-09-12T13:51:38;20.05;;;18.73;;
32228;SDS011;18717;48.034;11.186;2023-09-12T13:54:05;21.50;;;20.00;;
32228;SDS011;18717;48.034;11.186;2023-09-12T13:56:42;20.67;;;19.30;;
32228;SDS011;18717;48.034;11.186;2023-09-12T13:59:10;19.75;;;18.65;;
32228;SDS011;18717;48.034;11.186;2023-09-12T14:01:37;20.50;;;19.00;;
32228;SDS011;18717;48.034;11.186;2023-09-12T14:04:05;20.45;;;19.05;;
32228;SDS011;18717;48.034;11.186;2023-09-12T14:06:35;18.95;;;17.65;;
32228;SDS011;18717;48.034;11.186;2023-09-12T14:09:04;20.10;;;18.63;;
32228;SDS011;18717;48.034;11.186;2023-09-12T14:11:32;19.95;;;18.55;;
32228;SDS011;18717;48.034;11.186;2023-09-12T14:14:04;20.02;;;18.65;;
32228;SDS011;18717;48.034;11.186;2023-09-12T14:16:49;20.00;;;18.67;;
32228;SDS011;18717;48.034;11.186;2023-09-12T14:19:34;21.45;;;20.05;;
32228;SDS011;18717;48.034;11.186;2023-09-12T14:22:03;20.55;;;19.25;;
32228;SDS011;18717;48.034;11.186;2023-09-12T14:24:32;21.20;;;19.70;;